createdAt,value
2019-03-16T01:05:15.584Z,48.90
2019-03-16T01:07:55.943Z,54.93
2019-03-16T01:10:36.648Z,53.73
2019-03-16T01:13:17.099Z,53.37
2019-03-16T01:15:58.033Z,58.00
2019-03-16T01:18:38.285Z,55.77
2019-03-16T01:21:19.383Z,54.87
2019-03-16T01:24:00.140Z,53.20
2019-03-16T01:26:40.281Z,54.80
2019-03-16T01:29:21.039Z,51.17
2019-03-16T01:32:01.459Z,55.53
2019-03-16T01:34:43.987Z,54.37
2019-03-16T01:37:22.942Z,53.87
2019-03-16T01:40:04.005Z,53.47
2019-03-16T01:42:44.884Z,52.73
2019-03-16T01:45:25.856Z,49.97
2019-03-16T01:48:05.845Z,52.50
2019-03-16T01:50:47.019Z,57.80
2019-03-16T01:53:27.981Z,52.43
2019-03-16T01:56:08.828Z,52.13
2019-03-16T01:58:49.005Z,48.07
2019-03-16T02:01:29.860Z,46.10
2019-03-16T02:04:09.855Z,44.07
2019-03-16T02:06:50.351Z,40.90
2019-03-16T02:09:30.922Z,38.43
2019-03-16T02:12:11.626Z,36.50
2019-03-16T02:14:54.443Z,34.70
2019-03-16T02:17:34.879Z,30.77
2019-03-16T02:20:16.066Z,30.97
2019-03-16T02:22:57.344Z,29.30
2019-03-16T02:25:37.620Z,28.67
2019-03-16T02:28:18.976Z,27.90
2019-03-16T02:31:00.116Z,28.17
2019-03-16T02:33:40.758Z,28.47
2019-03-16T02:36:20.861Z,28.53
2019-03-16T02:39:01.757Z,28.10
2019-03-16T02:41:42.828Z,25.33
2019-03-16T02:44:23.130Z,25.60
2019-03-16T02:47:03.957Z,28.30
2019-03-16T02:49:44.539Z,28.20
2019-03-16T02:52:25.227Z,31.93
2019-03-16T02:55:05.470Z,31.80
2019-03-16T02:57:46.281Z,29.77
2019-03-16T03:00:26.962Z,31.97
2019-03-16T03:03:07.162Z,29.27
2019-03-16T03:05:47.904Z,28.80
2019-03-16T03:08:28.755Z,28.93
2019-03-16T03:11:09.418Z,27.67
2019-03-16T03:13:49.899Z,27.83
2019-03-16T03:16:30.384Z,28.50
2019-03-16T03:19:10.985Z,29.53
2019-03-16T03:21:51.520Z,26.97
2019-03-16T03:24:31.864Z,27.50
2019-03-16T03:27:12.464Z,24.90
2019-03-16T03:29:56.842Z,23.60
2019-03-16T03:32:33.958Z,23.93
2019-03-16T03:35:14.496Z,22.90
2019-03-16T03:37:55.107Z,23.67
2019-03-16T03:40:35.500Z,24.10
2019-03-16T03:43:15.878Z,22.10
2019-03-16T03:45:57.074Z,21.93
2019-03-16T03:48:37.793Z,20.17
2019-03-16T03:51:18.944Z,22.20
2019-03-16T03:53:59.822Z,22.97
2019-03-16T03:56:40.937Z,22.43
2019-03-16T03:59:21.867Z,20.73
2019-03-16T04:02:02.884Z,29.90
2019-03-16T04:04:43.876Z,26.10
2019-03-16T04:07:24.371Z,24.83
2019-03-16T04:10:05.469Z,23.17
2019-03-16T04:12:47.127Z,23.80
2019-03-16T04:15:28.408Z,24.53
2019-03-16T05:15:04.003Z,25.30
2019-03-16T05:17:38.758Z,29.53
2019-03-16T05:20:08.062Z,26.43
2019-03-16T05:22:37.735Z,25.30
2019-03-16T05:25:07.078Z,23.77
2019-03-16T05:27:36.648Z,27.47
2019-03-16T05:32:33.605Z,30.57
2019-03-16T05:35:03.930Z,26.80
2019-03-16T05:37:44.775Z,26.20
2019-03-16T05:40:25.370Z,28.87
2019-03-16T05:43:05.735Z,26.37
2019-03-16T05:45:45.906Z,25.30
2019-03-16T05:48:27.130Z,31.20
2019-03-16T05:51:07.534Z,26.30
2019-03-16T05:53:47.889Z,25.13
2019-03-16T05:56:29.112Z,25.33
2019-03-16T05:59:10.527Z,26.47
2019-03-16T06:01:51.510Z,26.27
2019-03-16T06:04:32.224Z,26.93
2019-03-16T06:07:12.601Z,25.73
2019-03-16T06:09:52.849Z,26.50
2019-03-16T06:12:33.934Z,29.10
2019-03-16T06:15:17.677Z,27.63
2019-03-16T06:17:58.352Z,27.00
2019-03-16T06:20:40.830Z,29.10
2019-03-16T06:23:23.358Z,27.90
2019-03-16T06:26:03.538Z,26.93
2019-03-16T06:28:43.754Z,29.10
2019-03-16T06:31:24.728Z,27.27
2019-03-16T06:34:05.077Z,28.70
2019-03-16T06:36:45.685Z,27.60
2019-03-16T06:39:26.652Z,28.57
2019-03-16T06:42:07.373Z,27.53
2019-03-16T06:44:48.313Z,31.77
2019-03-16T06:47:29.153Z,28.87
2019-03-16T06:50:09.514Z,29.07
2019-03-16T06:52:50.802Z,29.00
2019-03-16T06:55:32.167Z,31.50
2019-03-16T06:58:13.054Z,33.03
2019-03-16T07:00:53.557Z,40.37
2019-03-16T07:03:34.315Z,34.20
2019-03-16T07:06:15.398Z,33.47
2019-03-16T07:08:55.927Z,33.53
2019-03-16T07:11:36.453Z,32.20
2019-03-16T07:14:17.050Z,31.50
2019-03-16T07:17:02.229Z,29.40
2019-03-16T07:19:38.820Z,28.33
2019-03-16T07:22:19.887Z,28.13
2019-03-16T07:25:01.054Z,29.67
2019-03-16T07:27:42.048Z,27.87
2019-03-16T07:30:22.954Z,29.17
2019-03-16T07:33:03.554Z,28.60
2019-03-16T07:35:44.008Z,31.00
2019-03-16T07:38:24.567Z,27.83
2019-03-16T07:41:05.312Z,28.87
2019-03-16T07:43:46.251Z,28.60
2019-03-16T07:46:26.900Z,30.10
2019-03-16T07:49:07.507Z,29.23
2019-03-16T07:51:48.135Z,29.40
2019-03-16T07:54:31.055Z,28.60
2019-03-16T07:57:08.725Z,31.27
2019-03-16T07:59:49.144Z,31.40
2019-03-16T08:02:29.892Z,32.30
2019-03-16T08:05:17.940Z,32.00
2019-03-16T08:07:51.609Z,30.63
2019-03-16T08:10:31.990Z,29.20
2019-03-16T08:13:12.460Z,29.70
2019-03-16T08:15:53.538Z,28.93
2019-03-16T08:18:34.017Z,27.63
2019-03-16T08:21:14.609Z,29.10
2019-03-16T08:23:55.144Z,27.73
2019-03-16T08:26:36.087Z,27.10
2019-03-16T08:29:16.870Z,29.93
2019-03-16T08:31:57.796Z,28.70
2019-03-16T08:34:38.330Z,29.40
2019-03-16T08:37:18.969Z,27.50
2019-03-16T08:40:00.555Z,24.83
2019-03-16T08:42:40.874Z,24.53
2019-03-16T08:45:21.489Z,24.07
2019-03-16T08:48:02.655Z,24.47
2019-03-16T08:50:43.237Z,25.40
2019-03-16T08:53:23.950Z,25.67
2019-03-16T08:56:04.029Z,27.23
2019-03-16T08:58:44.705Z,27.03
2019-03-16T09:01:25.449Z,27.40
2019-03-16T09:04:05.496Z,27.33
2019-03-16T09:06:47.011Z,26.53
2019-03-16T09:09:27.227Z,27.00
2019-03-16T09:12:07.974Z,27.17
2019-03-16T09:14:48.921Z,26.80
2019-03-16T09:17:29.769Z,26.43
2019-03-16T09:20:10.816Z,26.60
2019-03-16T09:22:51.391Z,27.53
2019-03-16T09:25:32.620Z,28.30
2019-03-16T09:28:18.726Z,27.87
2019-03-16T09:30:56.522Z,27.93
2019-03-16T09:33:36.280Z,27.93
2019-03-16T09:36:16.762Z,30.07
2019-03-16T09:38:57.179Z,29.40
2019-03-16T09:41:38.197Z,30.63
2019-03-16T09:44:18.999Z,31.90
2019-03-16T09:46:59.861Z,30.40
2019-03-16T09:49:40.706Z,32.57
2019-03-16T09:52:21.477Z,30.10
2019-03-16T09:55:01.969Z,31.10
2019-03-16T09:57:42.516Z,32.37
2019-03-16T10:00:23.089Z,33.73
2019-03-16T10:03:03.484Z,32.53
2019-03-16T10:05:43.832Z,34.10
2019-03-16T10:08:24.682Z,33.03
2019-03-16T10:11:04.809Z,32.53
2019-03-16T10:13:49.148Z,31.60
2019-03-16T10:16:30.167Z,31.00
2019-03-16T10:21:53.360Z,28.97
2019-03-16T10:24:34.243Z,30.40
2019-03-16T10:27:15.095Z,27.47
2019-03-16T10:29:55.849Z,26.83
2019-03-16T10:32:36.806Z,27.83
2019-03-16T10:35:16.966Z,27.07
2019-03-16T10:37:57.339Z,29.27
2019-03-16T10:40:38.118Z,27.03
2019-03-16T10:43:18.755Z,26.87
2019-03-16T10:45:58.986Z,25.97
2019-03-16T10:48:39.742Z,26.83
2019-03-16T10:51:20.199Z,26.30
2019-03-16T10:54:00.503Z,27.37
2019-03-16T10:56:41.542Z,28.53
2019-03-16T10:59:22.117Z,27.87
2019-03-16T11:02:02.198Z,28.73
2019-03-16T11:04:42.760Z,29.07
2019-03-16T11:07:23.981Z,30.20
2019-03-16T11:10:04.524Z,28.83
2019-03-16T11:12:44.914Z,30.23
2019-03-16T11:15:25.448Z,30.50
2019-03-16T11:18:05.427Z,30.67
2019-03-16T11:20:46.006Z,30.53
2019-03-16T11:23:26.693Z,32.33
2019-03-16T11:26:06.736Z,30.40
2019-03-16T11:28:47.306Z,30.43
2019-03-16T11:31:28.089Z,30.53
2019-03-16T11:34:08.599Z,30.17
2019-03-16T11:36:49.878Z,31.33
2019-03-16T11:39:32.062Z,31.43
2019-03-16T11:42:11.785Z,34.10
2019-03-16T11:44:52.004Z,35.23
2019-03-16T11:47:32.225Z,33.93
2019-03-16T11:50:12.635Z,33.30
2019-03-16T11:59:36.853Z,32.60
2019-03-16T12:02:17.239Z,32.93
2019-03-16T12:04:58.853Z,35.60
2019-03-16T12:07:39.786Z,34.80
2019-03-16T13:13:24.986Z,70.80
2019-03-16T13:16:06.075Z,48.67
2019-03-16T13:18:49.592Z,52.30
2019-03-16T13:21:30.920Z,59.63
2019-03-16T13:24:12.052Z,54.63
2019-03-16T15:13:49.031Z,51.97
2019-03-16T15:16:30.379Z,54.67
2019-03-16T15:19:11.299Z,54.60
2019-03-16T15:21:52.919Z,56.83
2019-03-16T15:24:33.699Z,54.30
2019-03-16T15:40:57.525Z,44.10
2019-03-16T15:43:37.977Z,41.83
2019-03-16T15:46:18.508Z,41.20
2019-03-16T15:48:59.151Z,41.33
2019-03-16T15:51:39.707Z,40.57
2019-03-16T15:54:20.077Z,55.90
2019-03-16T15:57:00.972Z,47.03
2019-03-16T15:59:41.722Z,51.10
2019-03-16T16:02:22.503Z,46.63
2019-03-16T16:05:03.104Z,40.70
2019-03-16T16:07:43.883Z,39.83
2019-03-16T16:10:24.602Z,42.53
2019-03-16T16:13:05.143Z,41.90
2019-03-16T16:15:46.029Z,41.73
2019-03-16T16:18:26.622Z,42.10
2019-03-16T16:21:07.192Z,42.93
2019-03-16T16:23:48.265Z,45.30
2019-03-16T16:26:30.090Z,43.30
2019-03-16T16:29:10.464Z,46.80
2019-03-16T16:31:50.917Z,46.43
2019-03-16T16:34:31.336Z,48.37
2019-03-16T16:37:12.203Z,47.93
2019-03-16T16:39:52.902Z,47.73
2019-03-16T16:42:34.524Z,48.43
2019-03-16T16:45:23.189Z,49.27
2019-03-16T16:48:07.323Z,51.53
2019-03-16T16:50:53.795Z,52.83
2019-03-16T16:53:34.877Z,50.90
2019-03-16T16:56:15.493Z,52.07
2019-03-16T16:58:55.365Z,51.47
2019-03-16T17:01:36.282Z,51.40
2019-03-16T17:04:17.040Z,48.87
2019-03-16T17:06:58.202Z,48.47
2019-03-16T17:09:38.783Z,49.60
2019-03-16T17:12:20.178Z,50.47
2019-03-16T17:15:01.409Z,52.77
2019-03-16T17:17:42.731Z,52.33
2019-03-16T17:20:23.685Z,50.43
2019-03-16T17:23:04.612Z,50.00
2019-03-16T17:25:45.623Z,51.13
2019-03-16T17:28:27.158Z,49.93
2019-03-16T17:31:08.846Z,48.53
2019-03-16T17:53:02.937Z,72.87
2019-03-16T17:55:43.887Z,63.63
2019-03-16T17:58:24.531Z,52.90
2019-03-16T18:01:05.742Z,51.33
2019-03-16T18:03:48.690Z,52.73
2019-03-16T18:06:29.399Z,49.07
2019-03-16T18:09:09.695Z,51.40
2019-03-16T18:11:50.573Z,45.57
2019-03-16T18:14:31.248Z,43.50
2019-03-16T18:17:11.928Z,42.03
2019-03-16T18:19:52.316Z,42.03
2019-03-16T18:22:32.592Z,43.80
2019-03-16T18:25:12.681Z,38.97
2019-03-16T18:27:53.115Z,49.47
2019-03-16T18:30:33.852Z,43.00
2019-03-16T18:33:14.022Z,44.90
2019-03-16T18:35:54.780Z,47.87
2019-03-16T18:38:35.459Z,54.43
2019-03-16T18:41:16.368Z,51.60
2019-03-16T18:43:57.669Z,75.03
2019-03-16T18:46:38.314Z,71.47
2019-03-16T18:49:19.313Z,71.60
2019-03-16T18:52:00.546Z,64.33
2019-03-16T18:54:41.805Z,64.23
2019-03-16T18:57:23.096Z,59.90
2019-03-16T19:00:04.388Z,54.23
2019-03-16T20:52:25.844Z,56.20
2019-03-16T20:55:08.438Z,50.40
2019-03-16T20:57:49.400Z,50.83
2019-03-16T21:00:31.493Z,52.30
2019-03-16T21:03:16.227Z,59.83
